Terminal Aerodrome Forecast
Issued by NWS Cleveland, OH

Home | Current Version | Previous Version | Graphics & Text | Print | Product List | Glossary On
Versions: 1 2 3 4 5 6 7 8 9 10 11 12 13 14 15 16 17 18 19 20 21 22 23 24 25 26 27 28 29 30 31
000
FTUS41 KCLE 181100
TAFCLE
TAF
KCLE 181131Z 1812/1918 24005KT P6SM SCT250
     FM181600 33006KT P6SM FEW050 SCT250
     FM181800 02012KT P6SM BKN250
     FM190100 07006KT P6SM BKN200
     FM191700 06010KT P6SM BKN120=

USA.gov is the U.S. government's official web portal to all federal, state and local government web resources and services.